Weather at Guardiamarina Zañartu Airport

Public forecast

Using degrees Celsius for public forecast. Weather courtesy of forecast.io.

Current aviation weather report (METAR) for Guardiamarina Zañartu Airport

Report is more than 6 hours old.

Retrieved 2021/05/11 20:00 UTC (6 hours ago):

SCGZ 112000Z VRB03KT 9999 SCT045 SCT080 BKN100 11/01 Q0989

Closest aviation forecast (TAF) to Guardiamarina Zañartu Airport

Closest forecast is Malvinas Argentinas Airport, 23.7 nm (43.9 km) WNW. Retrieved 2021-05-12 00:00 UTC (2 hours ago):

TAF SAWH 112300Z 1200/1224 32010KT 9999 BKN025 BKN040 TX09/1219Z TN04/1210Z TEMPO 1200/1208 VRB05KT TEMPO 1210/1214 SCT030 SCT040